createdAt,value
2018-09-04T00:02:09.847Z,15.00
2018-09-04T00:04:39.357Z,15.00
2018-09-04T00:07:09.143Z,15.00
2018-09-04T00:09:38.545Z,14.90
2018-09-04T00:12:07.901Z,14.80
2018-09-04T00:14:37.245Z,14.70
2018-09-04T00:17:06.625Z,14.50
2018-09-04T00:19:35.951Z,14.60
2018-09-04T00:22:05.424Z,14.70
2018-09-04T00:24:34.755Z,14.70
2018-09-04T00:27:04.213Z,14.60
2018-09-04T00:29:33.563Z,14.40
2018-09-04T00:32:04.202Z,14.40
2018-09-04T00:34:33.636Z,14.30
2018-09-04T00:37:03.030Z,14.40
2018-09-04T00:39:32.810Z,14.40
2018-09-04T00:42:02.332Z,14.40
2018-09-04T00:44:31.666Z,14.40
2018-09-04T00:47:00.997Z,14.30
2018-09-04T00:49:30.335Z,14.30
2018-09-04T00:51:59.721Z,14.40
2018-09-04T00:54:29.079Z,14.40
2018-09-04T00:56:58.453Z,14.40
2018-09-04T00:59:27.810Z,14.30
2018-09-04T01:01:57.808Z,14.30
2018-09-04T01:04:27.296Z,14.30
2018-09-04T01:06:56.630Z,14.30
2018-09-04T01:09:26.099Z,14.20
2018-09-04T01:11:55.559Z,14.10
2018-09-04T01:14:24.917Z,14.20
2018-09-04T01:16:54.240Z,14.30
2018-09-04T01:19:23.593Z,14.40
2018-09-04T01:21:52.964Z,14.30
2018-09-04T01:24:22.312Z,14.20
2018-09-04T01:26:51.667Z,14.00
2018-09-04T01:29:21.121Z,13.90
2018-09-04T01:31:51.513Z,13.80
2018-09-04T01:34:20.853Z,13.70
2018-09-04T01:36:50.177Z,13.70
2018-09-04T01:39:19.526Z,13.80
2018-09-04T01:41:49.040Z,13.80
2018-09-04T01:44:18.424Z,13.80
2018-09-04T01:46:47.788Z,13.70
2018-09-04T01:49:17.113Z,13.80
2018-09-04T01:51:46.515Z,13.80
2018-09-04T01:54:15.845Z,13.70
2018-09-04T01:56:45.196Z,13.70
2018-09-04T01:59:14.573Z,13.80
2018-09-04T02:01:44.136Z,13.80
2018-09-04T02:04:20.007Z,13.80
2018-09-04T02:06:49.345Z,13.70
2018-09-04T02:09:18.821Z,13.60
2018-09-04T02:11:48.341Z,13.50
2018-09-04T02:14:17.740Z,13.30
2018-09-04T02:16:47.521Z,13.40
2018-09-04T02:19:16.878Z,13.50
2018-09-04T02:21:46.393Z,13.60
2018-09-04T02:24:15.744Z,13.60
2018-09-04T02:26:45.122Z,13.40
2018-09-04T02:29:14.497Z,13.40
2018-09-04T02:31:47.511Z,13.40
2018-09-04T02:34:16.889Z,13.50
2018-09-04T02:36:46.261Z,13.60
2018-09-04T02:39:15.630Z,13.40
2018-09-04T02:41:44.984Z,13.30
2018-09-04T02:44:14.438Z,13.30
2018-09-04T02:46:43.858Z,13.10
2018-09-04T02:49:13.427Z,13.00
2018-09-04T02:51:42.831Z,13.10
2018-09-04T02:54:12.303Z,12.80
2018-09-04T02:56:41.665Z,12.80
2018-09-04T02:59:11.038Z,12.90
2018-09-04T03:01:40.549Z,12.90
2018-09-04T03:04:09.901Z,13.00
2018-09-04T03:06:39.264Z,13.10
2018-09-04T03:09:08.664Z,13.20
2018-09-04T03:11:38.039Z,13.30
2018-09-04T03:14:07.434Z,13.40
2018-09-04T03:16:36.858Z,13.60
2018-09-04T03:19:06.295Z,13.60
2018-09-04T03:21:35.971Z,13.60
2018-09-04T03:24:05.380Z,13.50
2018-09-04T03:26:34.728Z,13.40
2018-09-04T03:29:04.097Z,13.30
2018-09-04T03:31:33.457Z,13.10
2018-09-04T03:34:02.797Z,13.10
2018-09-04T03:36:32.290Z,13.10
2018-09-04T03:39:01.785Z,13.00
2018-09-04T03:41:31.193Z,13.00
2018-09-04T03:44:00.572Z,13.20
2018-09-04T03:46:29.929Z,13.20
2018-09-04T03:48:59.341Z,13.10
2018-09-04T03:51:28.839Z,13.10
2018-09-04T03:53:58.516Z,13.00
2018-09-04T03:56:27.864Z,13.00
2018-09-04T03:58:57.192Z,13.10
2018-09-04T04:01:26.657Z,13.00
2018-09-04T04:03:55.977Z,12.90
2018-09-04T04:06:25.393Z,12.80
2018-09-04T04:08:54.760Z,12.80
2018-09-04T04:11:24.231Z,12.90
2018-09-04T04:13:53.561Z,12.90
2018-09-04T04:16:22.900Z,12.90
2018-09-04T04:18:52.527Z,12.80
2018-09-04T04:21:22.265Z,12.50
2018-09-04T04:23:51.668Z,12.50
2018-09-04T04:26:21.024Z,12.40
2018-09-04T04:28:50.489Z,12.60
2018-09-04T04:31:19.937Z,12.60
2018-09-04T04:33:49.267Z,12.60
2018-09-04T04:36:18.632Z,12.70
2018-09-04T04:38:48.001Z,12.80
2018-09-04T04:41:17.350Z,12.80
2018-09-04T04:43:46.721Z,12.70
2018-09-04T04:46:16.075Z,12.60
2018-09-04T04:48:45.423Z,12.80
2018-09-04T04:51:14.857Z,12.80
2018-09-04T04:53:44.263Z,12.60
2018-09-04T04:56:13.632Z,12.60
2018-09-04T04:58:42.993Z,12.50
2018-09-04T05:01:13.544Z,12.60
2018-09-04T05:03:42.972Z,12.80
2018-09-04T05:06:12.322Z,12.80
2018-09-04T05:08:41.726Z,12.80
2018-09-04T05:11:11.207Z,12.90
2018-09-04T05:13:40.556Z,12.90
2018-09-04T05:16:09.909Z,12.80
2018-09-04T05:18:39.233Z,12.80
2018-09-04T05:21:08.758Z,12.80
2018-09-04T05:23:38.106Z,12.60
2018-09-04T05:26:07.493Z,12.40
2018-09-04T05:28:36.820Z,12.50
2018-09-04T05:31:06.345Z,12.60
2018-09-04T05:33:38.717Z,12.60
2018-09-04T05:36:08.227Z,12.70
2018-09-04T05:38:37.629Z,12.80
2018-09-04T05:41:07.392Z,12.70
2018-09-04T05:43:42.433Z,12.70
2018-09-04T05:46:19.080Z,12.70
2018-09-04T05:48:48.621Z,12.70
2018-09-04T05:51:18.138Z,12.70
2018-09-04T05:53:47.744Z,12.90
2018-09-04T05:56:17.377Z,13.00
2018-09-04T05:58:46.818Z,12.90
2018-09-04T06:01:16.827Z,12.90
2018-09-04T06:03:46.305Z,13.00
2018-09-04T06:06:16.233Z,13.30
2018-09-04T06:08:46.002Z,13.50
2018-09-04T06:11:15.532Z,13.60
2018-09-04T06:13:45.051Z,13.60
2018-09-04T06:16:14.525Z,13.70
2018-09-04T06:18:44.198Z,13.80
2018-09-04T06:21:13.859Z,13.80
2018-09-04T06:23:43.354Z,13.80
2018-09-04T06:26:12.925Z,13.90
2018-09-04T06:28:42.426Z,14.10
2018-09-04T06:31:13.929Z,14.20
2018-09-04T06:33:43.372Z,14.50
2018-09-04T06:36:13.147Z,14.70
2018-09-04T06:38:42.766Z,15.00
2018-09-04T06:41:12.276Z,15.10
2018-09-04T06:43:41.763Z,15.20
2018-09-04T06:46:11.204Z,15.30
2018-09-04T06:48:40.699Z,15.50
2018-09-04T06:51:10.252Z,15.60
2018-09-04T06:53:39.813Z,15.80
2018-09-04T06:56:09.263Z,15.90
2018-09-04T06:58:38.703Z,15.90
2018-09-04T07:01:08.298Z,16.00
2018-09-04T07:03:38.048Z,16.10
2018-09-04T07:06:07.768Z,16.20
2018-09-04T07:08:37.358Z,16.20
2018-09-04T07:11:07.100Z,16.20
2018-09-04T07:13:36.590Z,16.10
2018-09-04T07:16:06.090Z,16.30
2018-09-04T07:18:35.619Z,16.40
2018-09-04T07:21:05.309Z,16.50
2018-09-04T07:23:34.766Z,16.70
2018-09-04T07:26:04.343Z,16.90
2018-09-04T07:28:33.860Z,16.90
2018-09-04T07:31:03.665Z,17.00
2018-09-04T07:33:33.206Z,16.90
2018-09-04T07:36:02.830Z,16.90
2018-09-04T07:38:32.777Z,17.00
2018-09-04T07:41:02.492Z,17.10
2018-09-04T07:43:31.977Z,17.10
2018-09-04T07:46:01.480Z,17.10
2018-09-04T07:48:31.029Z,17.30
2018-09-04T07:51:00.607Z,17.40
2018-09-04T07:53:30.097Z,17.60
2018-09-04T07:55:59.591Z,17.50
2018-09-04T07:58:29.116Z,17.60
2018-09-04T08:00:58.693Z,17.80
2018-09-04T08:03:28.208Z,17.90
2018-09-04T08:05:57.681Z,18.00
2018-09-04T08:08:27.504Z,18.10
2018-09-04T08:10:57.104Z,18.40
2018-09-04T08:13:26.640Z,18.40
2018-09-04T08:15:56.218Z,18.50
2018-09-04T08:18:25.671Z,18.60
2018-09-04T08:20:55.205Z,18.40
2018-09-04T08:23:24.800Z,18.30
2018-09-04T08:25:54.370Z,18.60
2018-09-04T08:28:23.879Z,18.80
2018-09-04T08:30:53.439Z,18.80
2018-09-04T08:33:23.053Z,19.00
2018-09-04T08:35:52.597Z,18.40
2018-09-04T08:38:22.207Z,18.50
2018-09-04T08:40:52.733Z,18.80
2018-09-04T08:43:22.341Z,19.00
2018-09-04T08:45:51.745Z,19.30
2018-09-04T08:48:22.364Z,19.60
2018-09-04T08:50:51.903Z,19.70
2018-09-04T08:53:21.458Z,19.80
2018-09-04T08:55:50.979Z,20.20
2018-09-04T08:58:20.485Z,20.20
2018-09-04T09:00:49.996Z,19.80
2018-09-04T09:03:19.521Z,19.90
2018-09-04T09:05:49.050Z,20.00
2018-09-04T09:08:18.530Z,19.90
2018-09-04T09:10:48.173Z,20.10
2018-09-04T09:13:17.837Z,20.40
2018-09-04T09:15:47.410Z,20.20
2018-09-04T09:18:16.925Z,20.50
2018-09-04T09:20:46.406Z,20.90
2018-09-04T09:23:15.965Z,21.00
2018-09-04T09:25:45.492Z,20.80
2018-09-04T09:28:14.956Z,20.50
2018-09-04T09:30:44.446Z,20.80
2018-09-04T09:33:13.929Z,20.70
2018-09-04T09:35:43.417Z,20.70
2018-09-04T09:38:12.962Z,20.90
2018-09-04T09:40:42.466Z,21.00
2018-09-04T09:43:12.026Z,21.00
2018-09-04T09:45:41.543Z,20.70
2018-09-04T09:48:11.024Z,21.30
2018-09-04T09:50:40.610Z,21.70
2018-09-04T09:53:10.004Z,21.70
2018-09-04T09:55:39.319Z,21.90
2018-09-04T09:58:08.678Z,22.10
2018-09-04T10:00:43.336Z,21.60
2018-09-04T10:03:17.865Z,21.50
2018-09-04T10:05:47.224Z,21.70
2018-09-04T10:08:16.727Z,22.20
2018-09-04T10:10:46.140Z,22.20
2018-09-04T10:13:15.625Z,22.40
2018-09-04T10:15:44.978Z,22.50
2018-09-04T10:18:14.722Z,22.70
2018-09-04T10:20:44.431Z,23.00
2018-09-04T10:23:13.991Z,23.20
2018-09-04T10:25:43.345Z,23.30
2018-09-04T10:28:12.791Z,23.40
2018-09-04T10:30:42.251Z,23.60
2018-09-04T10:33:11.630Z,23.80
2018-09-04T10:35:41.049Z,24.00
2018-09-04T10:38:10.437Z,24.00
2018-09-04T10:40:46.259Z,24.20
2018-09-04T10:43:15.846Z,24.30
2018-09-04T10:45:50.388Z,24.50
2018-09-04T10:48:26.936Z,24.30
2018-09-04T10:50:56.430Z,24.30
2018-09-04T10:53:26.008Z,24.40
2018-09-04T10:55:55.615Z,24.60
2018-09-04T10:58:25.207Z,24.90
2018-09-04T11:00:54.769Z,25.10
2018-09-04T11:03:24.204Z,25.40
2018-09-04T11:05:53.894Z,25.50
2018-09-04T11:08:23.554Z,25.80
2018-09-04T11:10:53.214Z,25.70
2018-09-04T11:13:22.825Z,25.60
2018-09-04T11:15:52.418Z,25.60
2018-09-04T11:18:22.045Z,25.90
2018-09-04T11:20:51.633Z,26.20
2018-09-04T11:23:21.228Z,25.70
2018-09-04T11:25:50.812Z,26.30
2018-09-04T11:28:20.236Z,26.60
2018-09-04T11:30:49.934Z,26.40
2018-09-04T11:33:19.317Z,26.00
2018-09-04T11:35:48.901Z,26.60
2018-09-04T11:38:18.354Z,26.60
2018-09-04T11:40:49.012Z,27.20
2018-09-04T11:43:18.465Z,27.20
2018-09-04T11:45:47.988Z,27.40
2018-09-04T11:48:18.569Z,27.40
2018-09-04T11:50:48.001Z,26.60
2018-09-04T11:53:17.557Z,27.10
2018-09-04T11:55:47.023Z,27.70
2018-09-04T11:58:16.549Z,28.40
2018-09-04T12:00:47.813Z,28.70
2018-09-04T12:03:17.785Z,28.10
2018-09-04T12:05:47.265Z,27.70
2018-09-04T12:08:16.736Z,29.50
2018-09-04T12:10:46.332Z,29.20
2018-09-04T12:13:30.257Z,28.40
2018-09-04T12:16:00.815Z,28.10
2018-09-04T12:18:30.477Z,28.60
2018-09-04T12:21:05.333Z,29.10
2018-09-04T12:23:34.746Z,28.80
2018-09-04T12:26:05.515Z,29.50
2018-09-04T12:28:35.066Z,30.30
2018-09-04T12:31:05.037Z,30.50
2018-09-04T12:33:34.543Z,30.30
2018-09-04T12:36:04.297Z,30.20
2018-09-04T12:38:36.036Z,30.20
2018-09-04T12:41:06.417Z,30.30
2018-09-04T12:43:37.949Z,30.40
2018-09-04T12:46:07.925Z,31.00
2018-09-04T12:48:37.868Z,31.10
2018-09-04T12:51:07.585Z,30.20
2018-09-04T12:53:37.057Z,29.50
2018-09-04T12:56:06.617Z,28.90
2018-09-04T12:58:36.129Z,28.30
2018-09-04T13:01:05.965Z,28.90
2018-09-04T13:03:35.501Z,28.20
2018-09-04T13:06:05.045Z,27.60
2018-09-04T13:08:35.130Z,26.80
2018-09-04T13:11:05.045Z,26.90
2018-09-04T13:13:34.668Z,27.20
2018-09-04T13:16:04.596Z,27.70
2018-09-04T13:18:34.323Z,27.40
2018-09-04T13:21:04.983Z,27.40
2018-09-04T13:23:35.682Z,28.20
2018-09-04T13:26:05.328Z,28.20
2018-09-04T13:28:35.304Z,29.80
2018-09-04T13:31:04.832Z,31.00
2018-09-04T13:33:34.268Z,31.00
2018-09-04T13:36:03.628Z,31.00
2018-09-04T13:38:33.200Z,32.10
2018-09-04T13:41:08.878Z,31.50
2018-09-04T13:43:39.697Z,31.10
2018-09-04T13:46:09.201Z,31.10
2018-09-04T13:48:38.685Z,31.00
2018-09-04T13:51:09.073Z,32.10
2018-09-04T13:53:38.678Z,32.10
2018-09-04T13:56:08.179Z,31.40
2018-09-04T13:58:37.658Z,31.70
2018-09-04T14:01:07.525Z,31.70
2018-09-04T14:03:37.304Z,31.80
2018-09-04T14:06:06.960Z,32.30
2018-09-04T14:08:36.531Z,32.90
2018-09-04T14:11:06.415Z,33.90
2018-09-04T14:13:35.920Z,33.40
2018-09-04T14:16:08.197Z,32.30
2018-09-04T14:18:37.701Z,32.10
2018-09-04T14:21:08.463Z,31.90
2018-09-04T14:23:38.397Z,32.40
2018-09-04T14:26:07.959Z,32.30
2018-09-04T14:28:44.322Z,32.00
2018-09-04T14:31:06.963Z,31.90
2018-09-04T14:33:36.424Z,31.90
2018-09-04T14:36:05.975Z,32.80
2018-09-04T14:38:35.380Z,34.00
2018-09-04T14:41:05.468Z,32.40
2018-09-04T14:43:35.001Z,32.80
2018-09-04T14:46:04.670Z,32.70
2018-09-04T14:48:34.113Z,32.90
2018-09-04T14:51:03.916Z,32.80
2018-09-04T14:53:33.385Z,33.30
2018-09-04T14:56:03.093Z,33.70
2018-09-04T14:58:32.650Z,33.40
2018-09-04T15:01:02.211Z,32.60
2018-09-04T15:03:31.616Z,32.50
2018-09-04T15:06:01.049Z,32.80
2018-09-04T15:08:30.563Z,31.30
2018-09-04T15:11:00.046Z,30.80
2018-09-04T15:13:29.472Z,32.10
2018-09-04T15:15:59.015Z,32.90
2018-09-04T15:18:28.628Z,32.70
2018-09-04T15:21:00.347Z,31.40
2018-09-04T15:23:29.899Z,29.70
2018-09-04T15:25:59.458Z,28.90
2018-09-04T15:28:29.323Z,28.50
2018-09-04T15:30:58.829Z,28.00
2018-09-04T15:33:28.350Z,27.80
2018-09-04T15:35:57.937Z,27.30
2018-09-04T15:38:27.498Z,26.90
2018-09-04T15:40:57.037Z,26.90
2018-09-04T15:43:26.480Z,26.20
2018-09-04T15:45:55.969Z,26.00
2018-09-04T15:48:25.522Z,25.60
2018-09-04T15:50:55.448Z,25.40
2018-09-04T15:53:25.089Z,25.30
2018-09-04T15:55:54.565Z,25.20
2018-09-04T15:58:24.162Z,25.20
2018-09-04T16:00:53.924Z,25.10
2018-09-04T16:03:23.323Z,25.10
2018-09-04T16:05:52.856Z,24.90
2018-09-04T16:08:22.326Z,24.70
2018-09-04T16:10:51.809Z,24.60
2018-09-04T16:13:21.344Z,24.50
2018-09-04T16:15:50.867Z,24.40
2018-09-04T16:18:20.369Z,24.40
2018-09-04T16:20:49.926Z,24.30
2018-09-04T16:23:19.380Z,24.30
2018-09-04T16:25:48.953Z,24.10
2018-09-04T16:28:18.384Z,23.90
2018-09-04T16:30:51.735Z,23.80
2018-09-04T16:33:21.566Z,23.60
2018-09-04T16:35:50.992Z,23.50
2018-09-04T16:38:20.493Z,23.30
2018-09-04T16:40:50.036Z,23.20
2018-09-04T16:43:19.495Z,23.20
2018-09-04T16:45:48.971Z,23.20
2018-09-04T16:48:18.348Z,23.10
2018-09-04T16:50:47.840Z,23.10
2018-09-04T16:53:17.432Z,23.20
2018-09-04T16:55:46.969Z,23.20
2018-09-04T16:58:16.496Z,23.00
2018-09-04T17:00:46.008Z,22.90
2018-09-04T17:03:15.534Z,22.90
2018-09-04T17:05:45.361Z,22.90
2018-09-04T17:08:15.025Z,22.80
2018-09-04T17:10:44.665Z,22.70
2018-09-04T17:13:14.186Z,22.70
2018-09-04T17:15:44.029Z,22.60
2018-09-04T17:18:13.506Z,22.60
2018-09-04T17:20:43.062Z,22.50
2018-09-04T17:23:12.570Z,22.40
2018-09-04T17:25:42.361Z,22.40
2018-09-04T17:28:12.228Z,22.30
2018-09-04T17:30:41.931Z,22.30
2018-09-04T17:33:11.510Z,22.20
2018-09-04T17:35:40.952Z,22.10
2018-09-04T17:38:10.451Z,21.90
2018-09-04T17:40:39.920Z,21.80
2018-09-04T17:43:09.355Z,21.60
2018-09-04T17:45:38.785Z,21.50
2018-09-04T17:48:08.284Z,21.40
2018-09-04T17:50:37.741Z,21.20
2018-09-04T17:53:07.122Z,21.10
2018-09-04T17:55:36.459Z,21.00
2018-09-04T17:58:05.876Z,20.90
2018-09-04T18:00:35.261Z,20.80
2018-09-04T18:03:04.728Z,20.70
2018-09-04T18:05:34.090Z,20.70
2018-09-04T18:08:03.436Z,20.60
2018-09-04T18:10:32.943Z,20.50
2018-09-04T18:13:02.296Z,20.40
2018-09-04T18:15:31.783Z,20.40
2018-09-04T18:18:01.288Z,20.40
2018-09-04T18:20:30.804Z,20.30
2018-09-04T18:23:00.352Z,20.30
2018-09-04T18:25:30.229Z,20.20
2018-09-04T18:27:59.847Z,20.20
2018-09-04T18:30:29.410Z,20.10
2018-09-04T18:32:58.952Z,20.00
2018-09-04T18:35:28.510Z,19.90
2018-09-04T18:37:58.029Z,19.80
2018-09-04T18:40:27.500Z,19.80
2018-09-04T18:42:56.936Z,19.80
2018-09-04T18:45:37.297Z,19.70
2018-09-04T18:48:06.815Z,19.30
2018-09-04T18:50:36.285Z,19.30
2018-09-04T18:53:05.853Z,19.40
2018-09-04T18:55:35.351Z,19.30
2018-09-04T18:58:04.894Z,19.20
2018-09-04T19:00:34.411Z,19.20
2018-09-04T19:03:04.024Z,19.30
2018-09-04T19:05:33.680Z,19.50
2018-09-04T19:08:03.197Z,19.50
2018-09-04T19:10:33.405Z,19.40
2018-09-04T19:13:03.826Z,19.30
2018-09-04T19:15:33.317Z,19.40
2018-09-04T19:18:02.808Z,19.40
2018-09-04T19:20:32.289Z,19.40
2018-09-04T19:23:01.822Z,19.10
2018-09-04T19:25:31.357Z,19.00
2018-09-04T19:28:00.808Z,18.90
2018-09-04T19:30:30.417Z,18.80
2018-09-04T19:32:59.971Z,18.80
2018-09-04T19:35:29.312Z,18.70
2018-09-04T19:37:58.633Z,18.70
2018-09-04T19:40:28.034Z,18.50
2018-09-04T19:42:57.370Z,18.40
2018-09-04T19:45:26.833Z,18.20
2018-09-04T19:47:56.200Z,18.10
2018-09-04T19:50:25.771Z,18.00
2018-09-04T19:52:55.113Z,17.90
2018-09-04T19:55:24.524Z,18.00
2018-09-04T19:57:53.940Z,17.90
2018-09-04T20:00:23.354Z,17.90
2018-09-04T20:02:52.704Z,17.90
2018-09-04T20:05:22.282Z,17.80
2018-09-04T20:07:51.609Z,17.80
2018-09-04T20:10:20.970Z,17.80
2018-09-04T20:12:50.348Z,17.70
2018-09-04T20:15:19.717Z,17.70
2018-09-04T20:17:49.090Z,17.60
2018-09-04T20:20:18.499Z,17.60
2018-09-04T20:22:47.852Z,17.60
2018-09-04T20:25:17.197Z,17.60
2018-09-04T20:27:46.576Z,17.70
2018-09-04T20:30:15.953Z,17.80
2018-09-04T20:32:45.280Z,17.60
2018-09-04T20:35:14.617Z,17.40
2018-09-04T20:37:44.138Z,17.40
2018-09-04T20:40:13.511Z,17.40
2018-09-04T20:42:42.944Z,17.40
2018-09-04T20:45:12.316Z,17.50
2018-09-04T20:47:41.668Z,17.50
2018-09-04T20:50:11.139Z,17.40
2018-09-04T20:52:40.500Z,17.40
2018-09-04T20:55:09.906Z,17.40
2018-09-04T20:57:40.106Z,17.30
2018-09-04T21:00:22.097Z,17.30
2018-09-04T21:03:02.349Z,17.30
2018-09-04T21:05:42.384Z,17.30
2018-09-04T21:08:23.604Z,17.30
2018-09-04T21:10:54.962Z,17.30
2018-09-04T21:13:24.336Z,17.40
2018-09-04T21:15:53.672Z,17.30
2018-09-04T21:18:23.008Z,17.20
2018-09-04T21:20:52.407Z,17.20
2018-09-04T21:23:21.860Z,17.00
2018-09-04T21:25:51.200Z,17.00
2018-09-04T21:28:20.672Z,17.20
2018-09-04T21:30:50.121Z,17.10
2018-09-04T21:33:19.524Z,16.80
2018-09-04T21:35:48.877Z,16.70
2018-09-04T21:38:18.681Z,16.70
2018-09-04T21:40:48.154Z,16.70
2018-09-04T21:43:17.493Z,16.60
2018-09-04T21:45:46.845Z,16.60
2018-09-04T21:48:16.195Z,16.60
2018-09-04T21:50:45.648Z,16.50
2018-09-04T21:53:15.116Z,16.40
2018-09-04T21:55:44.470Z,16.40
2018-09-04T21:58:13.843Z,16.40
2018-09-04T22:00:43.243Z,16.50
2018-09-04T22:03:12.694Z,16.50
2018-09-04T22:05:42.052Z,16.60
2018-09-04T22:08:11.399Z,16.60
2018-09-04T22:10:41.828Z,16.50
2018-09-04T22:13:11.258Z,16.50
2018-09-04T22:15:40.645Z,16.40
2018-09-04T22:18:10.017Z,16.50
2018-09-04T22:20:39.364Z,16.40
2018-09-04T22:23:08.757Z,16.40
2018-09-04T22:25:38.296Z,16.40
2018-09-04T22:28:07.648Z,16.40
2018-09-04T22:30:37.204Z,16.40
2018-09-04T22:33:06.608Z,16.30
2018-09-04T22:35:35.957Z,16.20
2018-09-04T22:38:05.309Z,16.20
2018-09-04T22:40:34.713Z,16.10
2018-09-04T22:43:04.068Z,16.00
2018-09-04T22:45:33.446Z,16.00
2018-09-04T22:48:02.820Z,16.00
2018-09-04T22:50:37.341Z,16.00
2018-09-04T22:53:06.723Z,15.90
2018-09-04T22:55:36.062Z,15.90
2018-09-04T22:58:05.910Z,15.90
2018-09-04T23:00:35.295Z,16.00
2018-09-04T23:03:04.665Z,15.80
2018-09-04T23:05:34.008Z,15.80
2018-09-04T23:08:03.346Z,15.70
2018-09-04T23:10:32.768Z,15.80
2018-09-04T23:13:02.171Z,15.80
2018-09-04T23:15:31.646Z,15.90
2018-09-04T23:18:00.976Z,16.10
2018-09-04T23:20:30.356Z,16.00
2018-09-04T23:22:59.732Z,16.00
2018-09-04T23:25:29.049Z,16.00
2018-09-04T23:27:58.394Z,16.00
2018-09-04T23:30:27.785Z,16.00
2018-09-04T23:32:57.373Z,15.90
2018-09-04T23:35:26.713Z,16.10
2018-09-04T23:37:56.101Z,16.10
2018-09-04T23:40:25.605Z,16.00
2018-09-04T23:42:54.933Z,16.00
2018-09-04T23:45:24.407Z,15.80
2018-09-04T23:47:53.777Z,15.80
2018-09-04T23:50:23.333Z,15.70
2018-09-04T23:52:52.685Z,15.60
2018-09-04T23:55:22.032Z,15.60
2018-09-04T23:57:51.388Z,15.60
